createdAt,value
2019-03-24T00:02:15.139Z,85.59
2019-03-24T00:04:43.575Z,85.88
2019-03-24T00:07:11.978Z,86.00
2019-03-24T00:09:40.515Z,86.29
2019-03-24T00:12:08.999Z,86.05
2019-03-24T00:14:37.581Z,86.04
2019-03-24T00:17:06.108Z,85.74
2019-03-24T00:19:34.513Z,85.73
2019-03-24T00:22:02.939Z,85.21
2019-03-24T00:24:31.401Z,85.27
2019-03-24T00:26:59.838Z,85.01
2019-03-24T00:29:28.316Z,85.00
2019-03-24T00:31:56.786Z,84.95
2019-03-24T00:34:25.203Z,85.08
2019-03-24T00:36:53.631Z,85.00
2019-03-24T00:39:22.061Z,84.96
2019-03-24T00:41:50.449Z,84.96
2019-03-24T00:44:18.899Z,85.00
2019-03-24T00:46:47.381Z,84.89
2019-03-24T00:49:15.794Z,85.00
2019-03-24T00:51:44.371Z,85.30
2019-03-24T00:54:12.842Z,85.14
2019-03-24T00:56:41.478Z,85.07
2019-03-24T00:59:10.019Z,84.84
2019-03-24T01:01:38.606Z,85.21
2019-03-24T01:04:07.141Z,85.36
2019-03-24T01:06:35.642Z,85.53
2019-03-24T01:09:06.033Z,85.31
2019-03-24T01:11:34.543Z,84.97
2019-03-24T01:14:03.120Z,85.18
2019-03-24T01:16:31.730Z,85.28
2019-03-24T01:19:00.184Z,85.20
2019-03-24T01:21:28.716Z,84.39
2019-03-24T01:23:57.119Z,84.46
2019-03-24T01:26:25.543Z,84.82
2019-03-24T01:28:54.002Z,85.07
2019-03-24T01:31:22.464Z,84.78
2019-03-24T01:33:50.880Z,85.01
2019-03-24T01:36:19.368Z,85.04
2019-03-24T01:38:47.932Z,85.26
2019-03-24T01:41:16.406Z,85.92
2019-03-24T01:43:44.921Z,86.00
2019-03-24T01:46:13.421Z,86.05
2019-03-24T01:48:41.839Z,85.99
2019-03-24T01:51:10.261Z,86.34
2019-03-24T01:53:38.685Z,86.43
2019-03-24T01:56:07.097Z,86.67
2019-03-24T01:58:35.518Z,86.43
2019-03-24T02:01:04.000Z,86.95
2019-03-24T02:03:32.542Z,86.43
2019-03-24T02:06:00.983Z,86.59
2019-03-24T02:08:29.411Z,86.97
2019-03-24T02:10:57.813Z,86.92
2019-03-24T02:13:29.110Z,86.74
2019-03-24T02:15:57.532Z,86.89
2019-03-24T02:18:25.995Z,87.05
2019-03-24T02:20:54.373Z,87.06
2019-03-24T02:23:22.857Z,86.93
2019-03-24T02:25:51.278Z,86.80
2019-03-24T02:28:19.702Z,86.72
2019-03-24T02:30:48.098Z,86.49
2019-03-24T02:33:16.508Z,86.40
2019-03-24T02:35:44.966Z,86.57
2019-03-24T02:38:13.366Z,86.45
2019-03-24T02:40:41.817Z,86.42
2019-03-24T02:43:10.239Z,86.63
2019-03-24T02:45:38.648Z,86.80
2019-03-24T02:48:07.114Z,86.76
2019-03-24T02:50:35.571Z,86.35
2019-03-24T02:53:04.059Z,86.32
2019-03-24T02:55:32.451Z,86.45
2019-03-24T02:58:00.905Z,86.54
2019-03-24T03:00:29.281Z,86.80
2019-03-24T03:02:57.705Z,86.28
2019-03-24T03:05:26.102Z,86.83
2019-03-24T03:07:54.560Z,86.90
2019-03-24T03:10:22.955Z,86.66
2019-03-24T03:12:51.363Z,87.15
2019-03-24T03:15:19.798Z,86.65
2019-03-24T03:17:48.269Z,86.68
2019-03-24T03:20:16.814Z,87.22
2019-03-24T03:22:45.296Z,87.01
2019-03-24T03:25:13.997Z,86.97
2019-03-24T03:27:42.405Z,86.94
2019-03-24T03:30:11.349Z,87.17
2019-03-24T03:32:39.831Z,86.95
2019-03-24T03:35:09.011Z,87.09
2019-03-24T03:37:37.462Z,86.96
2019-03-24T03:40:06.848Z,86.90
2019-03-24T03:42:35.354Z,87.28
2019-03-24T03:45:05.006Z,87.47
2019-03-24T03:47:33.421Z,87.28
2019-03-24T03:50:01.822Z,87.23
2019-03-24T03:52:30.239Z,87.23
2019-03-24T03:54:58.678Z,87.37
2019-03-24T03:57:27.094Z,87.33
2019-03-24T03:59:55.518Z,87.31
2019-03-24T04:02:23.941Z,87.34
2019-03-24T04:04:52.372Z,87.25
2019-03-24T04:07:20.754Z,87.16
2019-03-24T04:09:49.235Z,87.28
2019-03-24T04:12:17.673Z,87.19
2019-03-24T04:14:46.149Z,87.36
2019-03-24T04:17:14.628Z,87.32
2019-03-24T04:19:43.041Z,87.32
2019-03-24T04:22:11.546Z,87.09
2019-03-24T04:24:40.041Z,87.38
2019-03-24T04:27:08.452Z,87.14
2019-03-24T04:29:36.851Z,87.31
2019-03-24T04:32:05.356Z,87.44
2019-03-24T04:34:33.763Z,87.44
2019-03-24T04:37:02.172Z,87.08
2019-03-24T04:39:30.622Z,87.43
2019-03-24T04:41:59.052Z,87.13
2019-03-24T04:44:27.461Z,87.07
2019-03-24T04:46:55.859Z,87.31
2019-03-24T04:49:24.342Z,87.10
2019-03-24T04:51:52.743Z,86.98
2019-03-24T04:54:21.187Z,87.56
2019-03-24T04:56:49.565Z,87.86
2019-03-24T04:59:17.981Z,87.56
2019-03-24T05:01:46.429Z,87.39
2019-03-24T05:04:17.500Z,87.38
2019-03-24T05:06:45.991Z,87.36
2019-03-24T05:09:15.342Z,87.57
2019-03-24T05:11:43.743Z,88.07
2019-03-24T05:14:12.165Z,87.63
2019-03-24T05:16:40.577Z,87.51
2019-03-24T05:19:09.000Z,87.59
2019-03-24T05:21:37.435Z,87.37
2019-03-24T05:24:05.841Z,87.16
2019-03-24T05:26:34.260Z,87.36
2019-03-24T05:29:02.672Z,86.96
2019-03-24T05:31:31.121Z,87.35
2019-03-24T05:33:59.558Z,87.00
2019-03-24T05:36:27.964Z,87.58
2019-03-24T05:38:56.395Z,86.53
2019-03-24T05:41:24.807Z,86.11
2019-03-24T05:43:53.332Z,86.18
2019-03-24T05:46:21.778Z,85.89
2019-03-24T05:48:50.188Z,85.85
2019-03-24T05:51:18.609Z,86.08
2019-03-24T05:53:47.012Z,85.81
2019-03-24T05:56:15.472Z,85.57
2019-03-24T05:58:43.915Z,85.45
2019-03-24T06:01:12.336Z,84.81
2019-03-24T06:03:40.731Z,84.68
2019-03-24T06:06:09.134Z,84.59
2019-03-24T06:08:37.557Z,84.46
2019-03-24T06:11:06.050Z,84.61
2019-03-24T06:13:34.653Z,84.12
2019-03-24T06:16:03.112Z,83.83
2019-03-24T06:18:31.525Z,83.59
2019-03-24T06:20:59.947Z,83.72
2019-03-24T06:23:28.358Z,82.92
2019-03-24T06:25:56.796Z,83.28
2019-03-24T06:28:25.256Z,82.69
2019-03-24T06:30:53.697Z,82.10
2019-03-24T06:33:22.124Z,82.61
2019-03-24T06:35:50.501Z,82.25
2019-03-24T06:38:18.981Z,81.40
2019-03-24T06:40:47.370Z,82.01
2019-03-24T06:43:15.815Z,80.78
2019-03-24T06:45:44.224Z,81.12
2019-03-24T06:48:12.676Z,81.74
2019-03-24T06:50:41.112Z,80.85
2019-03-24T06:53:09.577Z,80.78
2019-03-24T06:55:37.975Z,81.24
2019-03-24T06:58:06.376Z,80.99
2019-03-24T07:00:34.775Z,81.09
2019-03-24T07:03:03.169Z,81.44
2019-03-24T07:05:31.592Z,81.94
2019-03-24T07:07:59.991Z,80.58
2019-03-24T07:10:28.397Z,81.64
2019-03-24T07:12:56.815Z,80.32
2019-03-24T07:15:25.254Z,81.09
2019-03-24T07:17:53.665Z,81.36
2019-03-24T07:20:22.069Z,81.05
2019-03-24T07:22:50.548Z,81.00
2019-03-24T07:25:19.101Z,80.37
2019-03-24T07:27:47.507Z,80.45
2019-03-24T07:30:16.055Z,79.90
2019-03-24T07:32:44.445Z,79.09
2019-03-24T07:35:13.764Z,80.30
2019-03-24T07:37:42.169Z,80.52
2019-03-24T07:40:10.863Z,80.49
2019-03-24T07:42:39.289Z,79.75
2019-03-24T07:45:08.437Z,79.90
2019-03-24T07:47:36.858Z,79.45
2019-03-24T07:50:09.223Z,79.70
2019-03-24T07:52:40.654Z,79.56
2019-03-24T07:55:09.957Z,78.48
2019-03-24T07:57:38.361Z,79.71
2019-03-24T08:00:09.297Z,79.11
2019-03-24T08:02:37.702Z,79.22
2019-03-24T08:05:06.454Z,80.02
2019-03-24T08:07:34.881Z,79.51
2019-03-24T08:10:05.148Z,79.74
2019-03-24T08:12:33.579Z,80.18
2019-03-24T08:15:03.594Z,79.46
2019-03-24T08:17:31.972Z,80.35
2019-03-24T08:20:00.402Z,80.46
2019-03-24T08:22:28.948Z,80.73
2019-03-24T08:24:57.342Z,80.16
2019-03-24T08:27:25.776Z,80.43
2019-03-24T08:29:54.198Z,80.68
2019-03-24T08:32:22.598Z,80.28
2019-03-24T08:34:51.048Z,78.63
2019-03-24T08:37:19.527Z,79.15
2019-03-24T08:39:47.918Z,79.51
2019-03-24T08:42:16.421Z,79.14
2019-03-24T08:44:44.817Z,79.04
2019-03-24T08:47:13.272Z,78.62
2019-03-24T08:49:41.691Z,78.21
2019-03-24T08:52:10.091Z,77.38
2019-03-24T08:54:38.501Z,78.00
2019-03-24T08:57:06.960Z,77.32
2019-03-24T08:59:36.904Z,77.26
2019-03-24T09:02:05.408Z,77.64
2019-03-24T09:04:35.476Z,77.78
2019-03-24T09:07:03.875Z,78.08
2019-03-24T09:09:32.310Z,76.77
2019-03-24T09:12:00.802Z,77.15
2019-03-24T09:14:29.224Z,77.69
2019-03-24T09:16:57.617Z,77.02
2019-03-24T09:19:26.025Z,77.04
2019-03-24T09:21:54.502Z,77.70
2019-03-24T09:24:22.916Z,77.80
2019-03-24T09:26:51.401Z,76.29
2019-03-24T09:29:19.822Z,76.69
2019-03-24T09:31:48.255Z,77.04
2019-03-24T09:34:16.682Z,76.75
2019-03-24T09:36:45.081Z,77.25
2019-03-24T09:39:15.003Z,75.10
2019-03-24T09:41:45.001Z,75.57
2019-03-24T09:44:16.473Z,75.78
2019-03-24T09:46:44.897Z,75.07
2019-03-24T09:49:15.992Z,74.84
2019-03-24T09:51:44.531Z,74.24
2019-03-24T09:54:12.967Z,75.06
2019-03-24T09:56:41.538Z,75.24
2019-03-24T09:59:09.939Z,75.66
2019-03-24T10:01:41.319Z,75.36
2019-03-24T10:04:09.739Z,75.37
2019-03-24T10:06:38.128Z,75.78
2019-03-24T10:09:07.181Z,75.55
2019-03-24T10:11:35.594Z,75.50
2019-03-24T10:14:05.566Z,75.32
2019-03-24T10:16:34.124Z,75.48
2019-03-24T10:19:13.285Z,73.77
2019-03-24T10:21:32.723Z,74.36
2019-03-24T10:24:01.143Z,73.92
2019-03-24T10:26:29.547Z,73.88
2019-03-24T10:28:57.983Z,74.30
2019-03-24T10:31:27.914Z,72.86
2019-03-24T10:33:56.350Z,72.73
2019-03-24T10:36:24.776Z,71.28
2019-03-24T10:38:53.208Z,71.30
2019-03-24T10:41:21.642Z,70.45
2019-03-24T10:43:50.044Z,71.23
2019-03-24T10:46:18.458Z,71.72
2019-03-24T10:48:46.874Z,69.70
2019-03-24T10:51:15.272Z,70.37
2019-03-24T10:53:43.669Z,70.53
2019-03-24T10:56:12.074Z,71.10
2019-03-24T10:58:40.465Z,71.37
2019-03-24T11:01:08.930Z,70.22
2019-03-24T11:03:37.309Z,67.62
2019-03-24T11:06:05.723Z,68.06
2019-03-24T11:08:34.127Z,66.96
2019-03-24T11:11:02.721Z,67.63
2019-03-24T11:13:31.131Z,68.38
2019-03-24T11:15:59.772Z,68.51
2019-03-24T11:18:28.245Z,68.47
2019-03-24T11:20:56.651Z,67.92
2019-03-24T11:23:25.095Z,67.59
2019-03-24T11:25:53.567Z,67.62
2019-03-24T11:28:22.009Z,67.86
2019-03-24T11:30:50.471Z,66.22
2019-03-24T11:33:18.931Z,66.04
2019-03-24T11:35:47.354Z,66.32
2019-03-24T11:38:15.772Z,65.88
2019-03-24T11:40:44.194Z,64.79
2019-03-24T11:43:12.607Z,65.75
2019-03-24T11:45:41.035Z,66.21
2019-03-24T11:48:09.443Z,63.96
2019-03-24T11:50:37.909Z,62.54
2019-03-24T11:53:06.397Z,61.22
2019-03-24T11:55:34.786Z,61.35
2019-03-24T11:58:05.968Z,61.37
2019-03-24T12:00:34.985Z,60.83
2019-03-24T12:03:03.467Z,60.97
2019-03-24T12:05:32.020Z,61.27
2019-03-24T12:08:00.536Z,62.48
2019-03-24T12:10:28.927Z,62.50
2019-03-24T12:12:57.365Z,61.28
2019-03-24T12:15:28.511Z,60.62
2019-03-24T12:17:58.596Z,60.20
2019-03-24T12:20:27.192Z,59.37
2019-03-24T12:22:55.531Z,59.72
2019-03-24T12:25:23.959Z,59.37
2019-03-24T12:27:52.366Z,58.40
2019-03-24T12:30:20.928Z,57.79
2019-03-24T12:32:49.403Z,56.26
2019-03-24T12:35:17.909Z,56.01
2019-03-24T12:37:46.303Z,55.73
2019-03-24T12:40:14.969Z,54.78
2019-03-24T12:42:43.419Z,54.34
2019-03-24T12:45:13.389Z,54.04
2019-03-24T12:47:41.835Z,54.13
2019-03-24T12:50:11.011Z,52.65
2019-03-24T12:52:39.511Z,50.00
2019-03-24T12:55:08.444Z,49.60
2019-03-24T12:57:36.976Z,50.19
2019-03-24T13:00:10.662Z,50.90
2019-03-24T13:02:39.209Z,52.72
2019-03-24T13:05:09.072Z,50.17
2019-03-24T13:07:37.537Z,50.82
2019-03-24T13:10:09.550Z,49.94
2019-03-24T13:12:38.027Z,50.39
2019-03-24T13:15:08.067Z,50.20
2019-03-24T13:17:36.638Z,50.61
2019-03-24T13:20:06.741Z,49.85
2019-03-24T13:22:35.233Z,49.63
2019-03-24T13:25:05.484Z,49.85
2019-03-24T13:27:33.965Z,48.23
2019-03-24T13:30:02.386Z,48.35
2019-03-24T13:32:30.787Z,48.72
2019-03-24T13:34:59.194Z,49.53
2019-03-24T13:37:27.603Z,49.32
2019-03-24T13:39:56.027Z,48.77
2019-03-24T13:42:24.440Z,47.88
2019-03-24T13:44:52.855Z,46.57
2019-03-24T13:47:21.263Z,46.29
2019-03-24T13:49:49.671Z,46.86
2019-03-24T13:52:18.227Z,44.32
2019-03-24T13:54:46.695Z,44.69
2019-03-24T13:57:15.238Z,44.24
2019-03-24T13:59:43.644Z,43.96
2019-03-24T14:02:12.104Z,43.68
2019-03-24T14:04:40.533Z,42.94
2019-03-24T14:07:08.934Z,42.87
2019-03-24T14:09:37.427Z,40.71
2019-03-24T14:12:05.973Z,41.58
2019-03-24T14:14:34.378Z,40.00
2019-03-24T14:17:02.889Z,40.98
2019-03-24T14:19:31.293Z,40.49
2019-03-24T14:21:59.714Z,40.52
2019-03-24T14:24:28.144Z,40.02
2019-03-24T14:26:56.554Z,40.17
2019-03-24T14:29:27.074Z,38.68
2019-03-24T14:31:55.100Z,40.04
2019-03-24T14:34:23.587Z,39.87
2019-03-24T14:36:51.990Z,40.00
2019-03-24T14:39:20.469Z,39.10
2019-03-24T14:41:48.895Z,38.92
2019-03-24T14:44:17.335Z,39.54
2019-03-24T14:46:45.718Z,40.03
2019-03-24T14:49:14.188Z,39.61
2019-03-24T14:51:42.678Z,39.13
2019-03-24T14:54:11.149Z,38.71
2019-03-24T14:56:39.528Z,39.11
2019-03-24T14:59:07.961Z,38.97
2019-03-24T15:01:36.420Z,37.11
2019-03-24T15:04:04.846Z,36.55
2019-03-24T15:06:33.253Z,36.89
2019-03-24T15:09:01.664Z,36.00
2019-03-24T15:11:30.077Z,35.70
2019-03-24T15:13:58.488Z,35.18
2019-03-24T15:16:26.906Z,34.53
2019-03-24T15:18:55.323Z,36.59
2019-03-24T15:21:23.732Z,38.17
2019-03-24T15:23:52.145Z,40.81
2019-03-24T15:26:20.565Z,38.74
2019-03-24T15:28:48.977Z,38.48
2019-03-24T15:31:19.119Z,37.17
2019-03-24T15:33:47.546Z,39.24
2019-03-24T15:36:15.958Z,38.48
2019-03-24T15:38:44.373Z,38.27
2019-03-24T15:41:12.808Z,39.67
2019-03-24T15:43:41.286Z,39.26
2019-03-24T15:46:09.753Z,39.63
2019-03-24T15:48:38.115Z,39.72
2019-03-24T15:51:16.351Z,38.61
2019-03-24T15:53:36.667Z,36.96
2019-03-24T15:56:05.819Z,36.56
2019-03-24T15:58:36.976Z,39.57
2019-03-24T16:01:05.464Z,37.88
2019-03-24T16:03:33.880Z,38.66
2019-03-24T16:06:02.280Z,39.11
2019-03-24T16:08:30.701Z,39.37
2019-03-24T16:11:00.832Z,39.21
2019-03-24T16:13:29.275Z,41.20
2019-03-24T16:15:57.727Z,41.79
2019-03-24T16:18:31.376Z,42.75
2019-03-24T16:20:59.886Z,42.32
2019-03-24T16:23:32.721Z,43.36
2019-03-24T16:26:01.227Z,43.47
2019-03-24T16:28:35.282Z,43.72
2019-03-24T16:31:06.530Z,44.49
2019-03-24T16:33:36.245Z,44.15
2019-03-24T16:36:06.166Z,43.65
2019-03-24T16:38:48.828Z,42.32
2019-03-24T16:41:11.937Z,42.14
2019-03-24T16:43:46.313Z,41.88
2019-03-24T16:46:16.433Z,42.18
2019-03-24T16:48:44.858Z,41.62
2019-03-24T16:51:16.305Z,42.40
2019-03-24T16:53:47.932Z,43.68
2019-03-24T16:56:32.557Z,44.38
2019-03-24T16:59:04.000Z,45.00
2019-03-24T17:01:35.167Z,45.84
2019-03-24T17:04:05.297Z,46.70
2019-03-24T17:06:42.295Z,46.06
2019-03-24T17:09:18.245Z,46.28
2019-03-24T17:11:51.572Z,46.31
2019-03-24T17:14:20.904Z,47.72
2019-03-24T17:16:52.366Z,46.81
2019-03-24T17:19:20.785Z,47.07
2019-03-24T17:21:52.160Z,47.36
2019-03-24T17:24:20.606Z,48.03
2019-03-24T17:26:49.040Z,49.17
2019-03-24T17:29:17.524Z,49.57
2019-03-24T17:31:46.003Z,50.05
2019-03-24T17:34:17.701Z,50.71
2019-03-24T17:36:52.015Z,50.91
2019-03-24T17:39:20.443Z,51.08
2019-03-24T17:41:54.836Z,51.74
2019-03-24T17:44:26.302Z,51.37
2019-03-24T17:46:54.852Z,51.53
2019-03-24T17:49:24.149Z,52.39
2019-03-24T17:52:00.964Z,52.33
2019-03-24T17:54:28.623Z,52.00
2019-03-24T17:57:03.556Z,52.91
2019-03-24T17:59:41.059Z,52.45
2019-03-24T18:02:14.641Z,52.38
2019-03-24T18:04:50.545Z,51.92
2019-03-24T18:07:20.515Z,51.89
2019-03-24T18:09:48.909Z,52.71
2019-03-24T18:12:21.009Z,53.31
2019-03-24T18:14:49.091Z,52.35
2019-03-24T18:17:18.504Z,52.42
2019-03-24T18:19:50.916Z,53.18
2019-03-24T18:22:19.302Z,53.03
2019-03-24T18:24:53.620Z,52.30
2019-03-24T18:27:31.043Z,52.88
2019-03-24T18:29:59.892Z,52.87
2019-03-24T18:32:28.400Z,52.40
2019-03-24T18:34:56.830Z,51.21
2019-03-24T18:37:26.869Z,51.22
2019-03-24T18:39:55.262Z,51.41
2019-03-24T18:42:23.751Z,51.61
2019-03-24T18:44:53.690Z,51.58
2019-03-24T18:47:22.140Z,52.35
2019-03-24T18:49:50.560Z,52.57
2019-03-24T18:52:22.831Z,52.71
2019-03-24T18:54:52.178Z,53.02
2019-03-24T18:57:23.577Z,53.12
2019-03-24T18:59:52.022Z,53.08
2019-03-24T19:02:20.448Z,53.64
2019-03-24T19:04:48.839Z,53.58
2019-03-24T19:07:17.256Z,53.39
2019-03-24T19:09:45.650Z,53.22
2019-03-24T19:12:14.127Z,53.90
2019-03-24T19:14:43.016Z,53.43
2019-03-24T19:17:11.426Z,53.80
2019-03-24T19:19:39.852Z,53.81
2019-03-24T19:22:08.425Z,54.61
2019-03-24T19:24:36.825Z,53.44
2019-03-24T19:27:05.435Z,54.18
2019-03-24T19:29:33.865Z,54.00
2019-03-24T19:32:02.342Z,54.13
2019-03-24T19:34:31.119Z,54.67
2019-03-24T19:36:59.670Z,54.26
2019-03-24T19:39:28.145Z,54.65
2019-03-24T19:41:56.572Z,54.48
2019-03-24T19:44:24.975Z,55.48
2019-03-24T19:46:53.429Z,55.56
2019-03-24T19:49:21.832Z,55.21
2019-03-24T19:51:50.352Z,55.21
2019-03-24T19:54:18.749Z,56.21
2019-03-24T19:56:47.239Z,56.44
2019-03-24T19:59:15.679Z,56.30
2019-03-24T20:01:44.083Z,57.22
2019-03-24T20:04:12.517Z,57.22
2019-03-24T20:06:40.899Z,57.98
2019-03-24T20:09:11.308Z,57.45
2019-03-24T20:11:41.203Z,58.59
2019-03-24T20:14:09.591Z,58.43
2019-03-24T20:16:38.039Z,58.42
2019-03-24T20:19:06.476Z,59.10
2019-03-24T20:21:34.902Z,58.95
2019-03-24T20:24:03.376Z,59.03
2019-03-24T20:26:31.792Z,59.32
2019-03-24T20:29:00.200Z,59.63
2019-03-24T20:31:28.650Z,59.89
2019-03-24T20:33:57.050Z,60.04
2019-03-24T20:36:25.494Z,60.56
2019-03-24T20:38:53.893Z,60.84
2019-03-24T20:41:22.326Z,61.30
2019-03-24T20:43:50.757Z,61.56
2019-03-24T20:46:19.145Z,61.84
2019-03-24T20:48:47.612Z,62.05
2019-03-24T20:51:16.037Z,62.54
2019-03-24T20:53:44.456Z,63.02
2019-03-24T20:56:12.889Z,63.06
2019-03-24T20:58:41.326Z,63.99
2019-03-24T21:01:09.759Z,63.99
2019-03-24T21:03:38.157Z,64.66
2019-03-24T21:06:06.654Z,65.09
2019-03-24T21:08:35.070Z,65.18
2019-03-24T21:11:03.482Z,65.86
2019-03-24T21:13:31.894Z,65.68
2019-03-24T21:16:00.313Z,65.71
2019-03-24T21:18:28.730Z,66.01
2019-03-24T21:20:57.147Z,66.21
2019-03-24T21:23:29.795Z,66.39
2019-03-24T21:25:55.762Z,66.26
2019-03-24T21:28:24.203Z,66.78
2019-03-24T21:30:52.615Z,66.95
2019-03-24T21:33:21.026Z,67.21
2019-03-24T21:35:49.528Z,66.49
2019-03-24T21:38:17.949Z,67.17
2019-03-24T21:40:46.363Z,67.05
2019-03-24T21:43:14.884Z,67.29
2019-03-24T21:45:43.731Z,67.56
2019-03-24T21:48:12.162Z,67.07
2019-03-24T21:50:40.606Z,67.12
2019-03-24T21:53:09.089Z,67.55
2019-03-24T21:55:37.502Z,67.22
2019-03-24T21:58:05.980Z,68.03
2019-03-24T22:00:35.921Z,68.04
2019-03-24T22:03:04.687Z,67.28
2019-03-24T22:05:33.158Z,67.62
2019-03-24T22:08:01.653Z,68.13
2019-03-24T22:10:30.064Z,67.95
2019-03-24T22:12:58.539Z,67.21
2019-03-24T22:15:27.038Z,67.50
2019-03-24T22:17:55.595Z,67.59
2019-03-24T22:20:24.019Z,68.58
2019-03-24T22:22:52.412Z,68.35
2019-03-24T22:25:20.843Z,69.20
2019-03-24T22:27:49.262Z,67.94
2019-03-24T22:30:18.022Z,67.89
2019-03-24T22:32:46.489Z,68.68
2019-03-24T22:35:14.910Z,68.65
2019-03-24T22:37:43.333Z,69.01
2019-03-24T22:40:12.064Z,69.52
2019-03-24T22:42:40.464Z,70.11
2019-03-24T22:45:09.123Z,69.97
2019-03-24T22:47:37.523Z,70.03
2019-03-24T22:50:08.133Z,69.79
2019-03-24T22:52:37.117Z,70.69
2019-03-24T22:55:08.961Z,70.78
2019-03-24T22:57:37.417Z,71.70
2019-03-24T23:00:15.492Z,72.45
2019-03-24T23:02:43.908Z,72.61
2019-03-24T23:05:12.496Z,71.97
2019-03-24T23:07:40.920Z,72.53
2019-03-24T23:10:09.454Z,72.75
2019-03-24T23:12:37.885Z,71.97
2019-03-24T23:15:07.409Z,71.98
2019-03-24T23:17:36.091Z,70.89
2019-03-24T23:20:06.137Z,71.33
2019-03-24T23:22:34.641Z,71.14
2019-03-24T23:25:03.239Z,70.34
2019-03-24T23:27:31.667Z,69.83
2019-03-24T23:30:00.072Z,70.50
2019-03-24T23:32:28.546Z,70.41
2019-03-24T23:34:56.966Z,71.15
2019-03-24T23:37:25.375Z,70.77
2019-03-24T23:39:53.804Z,70.32
2019-03-24T23:42:22.268Z,71.07
2019-03-24T23:44:50.699Z,70.54
2019-03-24T23:47:19.088Z,70.71
2019-03-24T23:49:47.479Z,71.33
2019-03-24T23:52:15.892Z,71.36
2019-03-24T23:54:44.293Z,70.88
2019-03-24T23:57:12.688Z,71.37
2019-03-24T23:59:41.092Z,71.21
